Disclaimer

Please do not use the information listed here in-flight or in-navigation, as they are not provided to us by the airports but are provided by volunteers, so they might be outdated.

Search


Regions


Airport information page

No radio frequency information is available.

Airport informations:
Latitude: 27° 24' 11.49" N
Longitude: 089° 25' 28.58" E
Elevation: 7332 feet - 2235 meters
Operating hours: N/A
Operating agency: Civil government, landing fees and diplomatic clearance may be required
Timezone: UTC+5:30
Fuel: Unknown fuel type or whether there is any fuel.

Runway information:
15/33 - 6445 x 95 feet< - >1964 x 29 meters

Recent METARs:
VQPR 130230Z VRB02G15KT 9999 SKC M01/M05 Q1029
VQPR 130300Z VRB01KT 9999 SKC 02/M05 Q1029
VQPR 130330Z VRB01KT 9999 SKC 04/M05 Q1029

Airport on the map: